sensor_id;sensor_type;location;lat;lon;timestamp;P1;durP1;ratioP1;P2;durP2;ratioP2
8952;SDS011;4511;50.890;8.054;2023-10-09T00:01:41;7.57;;;4.40;;
8952;SDS011;4511;50.890;8.054;2023-10-09T00:04:09;6.00;;;4.73;;
8952;SDS011;4511;50.890;8.054;2023-10-09T00:06:36;8.90;;;4.90;;
8952;SDS011;4511;50.890;8.054;2023-10-09T00:09:03;8.43;;;4.80;;
8952;SDS011;4511;50.890;8.054;2023-10-09T00:11:57;6.97;;;4.37;;
8952;SDS011;4511;50.890;8.054;2023-10-09T00:14:25;6.90;;;4.87;;
8952;SDS011;4511;50.890;8.054;2023-10-09T00:16:55;5.67;;;3.87;;
8952;SDS011;4511;50.890;8.054;2023-10-09T00:19:30;5.70;;;4.27;;
8952;SDS011;4511;50.890;8.054;2023-10-09T00:21:58;6.50;;;4.17;;
8952;SDS011;4511;50.890;8.054;2023-10-09T00:24:31;6.73;;;4.53;;
8952;SDS011;4511;50.890;8.054;2023-10-09T00:27:00;7.57;;;4.67;;
8952;SDS011;4511;50.890;8.054;2023-10-09T00:29:37;6.07;;;4.20;;
8952;SDS011;4511;50.890;8.054;2023-10-09T00:32:09;8.50;;;4.50;;
8952;SDS011;4511;50.890;8.054;2023-10-09T00:34:40;4.83;;;4.17;;
8952;SDS011;4511;50.890;8.054;2023-10-09T00:37:08;5.53;;;4.17;;
8952;SDS011;4511;50.890;8.054;2023-10-09T00:39:41;8.17;;;4.57;;
8952;SDS011;4511;50.890;8.054;2023-10-09T00:42:10;5.87;;;4.63;;
8952;SDS011;4511;50.890;8.054;2023-10-09T00:44:54;8.17;;;4.40;;
8952;SDS011;4511;50.890;8.054;2023-10-09T00:47:22;7.63;;;4.90;;
8952;SDS011;4511;50.890;8.054;2023-10-09T00:49:52;9.87;;;5.33;;
8952;SDS011;4511;50.890;8.054;2023-10-09T00:52:26;6.33;;;4.60;;
8952;SDS011;4511;50.890;8.054;2023-10-09T00:54:58;5.77;;;4.87;;
8952;SDS011;4511;50.890;8.054;2023-10-09T00:57:34;12.47;;;4.93;;
8952;SDS011;4511;50.890;8.054;2023-10-09T01:00:05;6.97;;;4.67;;
8952;SDS011;4511;50.890;8.054;2023-10-09T01:02:48;6.47;;;4.37;;
8952;SDS011;4511;50.890;8.054;2023-10-09T01:05:35;6.83;;;4.83;;
8952;SDS011;4511;50.890;8.054;2023-10-09T01:08:03;6.40;;;4.37;;
8952;SDS011;4511;50.890;8.054;2023-10-09T01:10:44;6.27;;;4.87;;
8952;SDS011;4511;50.890;8.054;2023-10-09T01:13:17;6.43;;;4.87;;
8952;SDS011;4511;50.890;8.054;2023-10-09T01:15:44;5.00;;;4.20;;
8952;SDS011;4511;50.890;8.054;2023-10-09T01:18:13;5.77;;;4.10;;
8952;SDS011;4511;50.890;8.054;2023-10-09T01:20:41;8.57;;;4.67;;
8952;SDS011;4511;50.890;8.054;2023-10-09T01:23:12;6.40;;;4.90;;
8952;SDS011;4511;50.890;8.054;2023-10-09T01:25:39;8.20;;;4.80;;
8952;SDS011;4511;50.890;8.054;2023-10-09T01:28:10;5.50;;;4.80;;
8952;SDS011;4511;50.890;8.054;2023-10-09T01:30:40;6.93;;;5.10;;
8952;SDS011;4511;50.890;8.054;2023-10-09T01:33:08;6.83;;;4.53;;
8952;SDS011;4511;50.890;8.054;2023-10-09T01:35:47;7.33;;;4.60;;
8952;SDS011;4511;50.890;8.054;2023-10-09T01:38:16;7.53;;;4.83;;
8952;SDS011;4511;50.890;8.054;2023-10-09T01:40:44;6.93;;;4.63;;
8952;SDS011;4511;50.890;8.054;2023-10-09T01:43:16;7.33;;;4.77;;
8952;SDS011;4511;50.890;8.054;2023-10-09T01:45:44;4.67;;;4.27;;
8952;SDS011;4511;50.890;8.054;2023-10-09T01:48:11;9.43;;;4.80;;
8952;SDS011;4511;50.890;8.054;2023-10-09T01:50:48;6.97;;;4.60;;
8952;SDS011;4511;50.890;8.054;2023-10-09T01:53:17;5.87;;;4.47;;
8952;SDS011;4511;50.890;8.054;2023-10-09T01:55:47;8.70;;;4.60;;
8952;SDS011;4511;50.890;8.054;2023-10-09T01:58:15;5.57;;;4.67;;
8952;SDS011;4511;50.890;8.054;2023-10-09T02:00:50;6.43;;;4.43;;
8952;SDS011;4511;50.890;8.054;2023-10-09T02:03:20;5.93;;;4.60;;
8952;SDS011;4511;50.890;8.054;2023-10-09T02:05:49;10.73;;;4.80;;
8952;SDS011;4511;50.890;8.054;2023-10-09T02:08:19;6.43;;;4.40;;
8952;SDS011;4511;50.890;8.054;2023-10-09T02:10:51;9.90;;;4.80;;
8952;SDS011;4511;50.890;8.054;2023-10-09T02:13:21;8.07;;;4.77;;
8952;SDS011;4511;50.890;8.054;2023-10-09T02:15:55;11.43;;;4.60;;
8952;SDS011;4511;50.890;8.054;2023-10-09T02:18:24;6.97;;;4.50;;
8952;SDS011;4511;50.890;8.054;2023-10-09T02:21:05;5.87;;;4.57;;
8952;SDS011;4511;50.890;8.054;2023-10-09T02:23:40;5.73;;;4.47;;
8952;SDS011;4511;50.890;8.054;2023-10-09T02:26:11;4.70;;;4.20;;
8952;SDS011;4511;50.890;8.054;2023-10-09T02:28:44;7.33;;;4.63;;
8952;SDS011;4511;50.890;8.054;2023-10-09T02:31:17;6.43;;;4.83;;
8952;SDS011;4511;50.890;8.054;2023-10-09T02:33:47;8.30;;;4.93;;
8952;SDS011;4511;50.890;8.054;2023-10-09T02:36:18;6.93;;;4.60;;
8952;SDS011;4511;50.890;8.054;2023-10-09T02:38:46;8.17;;;4.60;;
8952;SDS011;4511;50.890;8.054;2023-10-09T02:41:13;7.30;;;4.77;;
8952;SDS011;4511;50.890;8.054;2023-10-09T02:43:45;7.27;;;4.83;;
8952;SDS011;4511;50.890;8.054;2023-10-09T02:46:15;7.30;;;4.73;;
8952;SDS011;4511;50.890;8.054;2023-10-09T02:48:46;6.37;;;4.60;;
8952;SDS011;4511;50.890;8.054;2023-10-09T02:51:16;8.60;;;4.60;;
8952;SDS011;4511;50.890;8.054;2023-10-09T02:53:59;7.27;;;4.23;;
8952;SDS011;4511;50.890;8.054;2023-10-09T02:56:33;7.93;;;5.53;;
8952;SDS011;4511;50.890;8.054;2023-10-09T02:59:02;10.10;;;4.80;;
8952;SDS011;4511;50.890;8.054;2023-10-09T03:01:32;6.70;;;4.50;;
8952;SDS011;4511;50.890;8.054;2023-10-09T03:04:00;4.80;;;4.30;;
8952;SDS011;4511;50.890;8.054;2023-10-09T03:06:28;7.40;;;4.50;;
8952;SDS011;4511;50.890;8.054;2023-10-09T03:08:56;6.80;;;4.40;;
8952;SDS011;4511;50.890;8.054;2023-10-09T03:11:24;6.30;;;4.43;;
8952;SDS011;4511;50.890;8.054;2023-10-09T03:13:51;4.97;;;4.47;;
8952;SDS011;4511;50.890;8.054;2023-10-09T03:16:20;7.87;;;4.83;;
8952;SDS011;4511;50.890;8.054;2023-10-09T03:18:47;8.33;;;4.47;;
8952;SDS011;4511;50.890;8.054;2023-10-09T03:21:15;68.67;;;6.53;;
8952;SDS011;4511;50.890;8.054;2023-10-09T03:23:42;5.80;;;4.40;;
8952;SDS011;4511;50.890;8.054;2023-10-09T03:26:10;5.70;;;4.60;;
8952;SDS011;4511;50.890;8.054;2023-10-09T03:28:38;6.87;;;4.30;;
8952;SDS011;4511;50.890;8.054;2023-10-09T03:31:08;5.40;;;4.80;;
8952;SDS011;4511;50.890;8.054;2023-10-09T03:33:35;7.83;;;5.00;;
8952;SDS011;4511;50.890;8.054;2023-10-09T03:36:02;7.20;;;4.57;;
8952;SDS011;4511;50.890;8.054;2023-10-09T03:38:32;8.17;;;4.90;;
8952;SDS011;4511;50.890;8.054;2023-10-09T03:41:01;5.43;;;4.57;;
8952;SDS011;4511;50.890;8.054;2023-10-09T03:43:32;6.20;;;4.53;;
8952;SDS011;4511;50.890;8.054;2023-10-09T03:46:04;6.73;;;4.60;;
8952;SDS011;4511;50.890;8.054;2023-10-09T03:48:39;7.07;;;4.53;;
8952;SDS011;4511;50.890;8.054;2023-10-09T03:51:08;7.43;;;4.07;;
8952;SDS011;4511;50.890;8.054;2023-10-09T03:53:38;6.13;;;4.40;;
8952;SDS011;4511;50.890;8.054;2023-10-09T03:56:05;11.83;;;5.03;;
8952;SDS011;4511;50.890;8.054;2023-10-09T03:58:37;5.97;;;5.07;;
8952;SDS011;4511;50.890;8.054;2023-10-09T04:01:08;5.33;;;4.80;;
8952;SDS011;4511;50.890;8.054;2023-10-09T04:03:42;6.03;;;4.70;;
8952;SDS011;4511;50.890;8.054;2023-10-09T04:06:09;7.87;;;4.87;;
8952;SDS011;4511;50.890;8.054;2023-10-09T04:08:37;8.70;;;5.27;;
8952;SDS011;4511;50.890;8.054;2023-10-09T04:11:09;8.33;;;4.97;;
8952;SDS011;4511;50.890;8.054;2023-10-09T04:13:41;8.17;;;4.60;;
8952;SDS011;4511;50.890;8.054;2023-10-09T04:16:12;7.23;;;4.53;;
8952;SDS011;4511;50.890;8.054;2023-10-09T04:18:53;8.70;;;4.73;;
8952;SDS011;4511;50.890;8.054;2023-10-09T04:21:21;9.97;;;5.13;;
8952;SDS011;4511;50.890;8.054;2023-10-09T04:23:59;8.47;;;4.43;;
8952;SDS011;4511;50.890;8.054;2023-10-09T04:26:35;8.77;;;4.50;;
8952;SDS011;4511;50.890;8.054;2023-10-09T04:29:02;5.53;;;4.23;;
8952;SDS011;4511;50.890;8.054;2023-10-09T04:31:31;5.30;;;4.53;;
8952;SDS011;4511;50.890;8.054;2023-10-09T04:34:02;6.83;;;4.53;;
8952;SDS011;4511;50.890;8.054;2023-10-09T04:36:48;8.43;;;4.57;;
8952;SDS011;4511;50.890;8.054;2023-10-09T04:39:16;6.20;;;4.47;;
8952;SDS011;4511;50.890;8.054;2023-10-09T04:41:57;6.20;;;4.30;;
8952;SDS011;4511;50.890;8.054;2023-10-09T04:44:38;5.37;;;4.20;;
8952;SDS011;4511;50.890;8.054;2023-10-09T04:47:26;6.90;;;4.63;;
8952;SDS011;4511;50.890;8.054;2023-10-09T04:50:01;7.50;;;4.30;;
8952;SDS011;4511;50.890;8.054;2023-10-09T04:52:36;4.73;;;4.20;;
8952;SDS011;4511;50.890;8.054;2023-10-09T04:55:17;4.87;;;4.23;;
8952;SDS011;4511;50.890;8.054;2023-10-09T04:57:46;5.10;;;4.60;;
8952;SDS011;4511;50.890;8.054;2023-10-09T05:00:26;7.17;;;4.20;;
8952;SDS011;4511;50.890;8.054;2023-10-09T05:03:13;9.03;;;4.60;;
8952;SDS011;4511;50.890;8.054;2023-10-09T05:05:50;5.87;;;4.73;;
8952;SDS011;4511;50.890;8.054;2023-10-09T05:08:24;6.20;;;4.37;;
8952;SDS011;4511;50.890;8.054;2023-10-09T05:10:54;4.73;;;4.23;;
8952;SDS011;4511;50.890;8.054;2023-10-09T05:13:31;41.30;;;6.07;;
8952;SDS011;4511;50.890;8.054;2023-10-09T05:16:08;186.30;;;10.73;;
8952;SDS011;4511;50.890;8.054;2023-10-09T05:18:45;6.93;;;4.97;;
8952;SDS011;4511;50.890;8.054;2023-10-09T05:21:21;5.00;;;4.07;;
8952;SDS011;4511;50.890;8.054;2023-10-09T05:24:09;6.83;;;4.63;;
8952;SDS011;4511;50.890;8.054;2023-10-09T05:26:49;6.83;;;4.50;;
8952;SDS011;4511;50.890;8.054;2023-10-09T05:29:39;11.27;;;4.73;;
8952;SDS011;4511;50.890;8.054;2023-10-09T05:32:24;8.47;;;4.50;;
8952;SDS011;4511;50.890;8.054;2023-10-09T05:34:56;7.10;;;4.73;;
8952;SDS011;4511;50.890;8.054;2023-10-09T05:37:40;7.00;;;4.70;;
8952;SDS011;4511;50.890;8.054;2023-10-09T05:40:12;7.07;;;4.43;;
8952;SDS011;4511;50.890;8.054;2023-10-09T05:42:47;4.87;;;4.37;;
8952;SDS011;4511;50.890;8.054;2023-10-09T05:45:24;4.60;;;4.20;;
8952;SDS011;4511;50.890;8.054;2023-10-09T05:48:09;5.40;;;4.20;;
8952;SDS011;4511;50.890;8.054;2023-10-09T05:50:55;5.43;;;4.67;;
8952;SDS011;4511;50.890;8.054;2023-10-09T05:53:44;6.20;;;4.80;;
8952;SDS011;4511;50.890;8.054;2023-10-09T05:56:30;5.57;;;4.57;;
8952;SDS011;4511;50.890;8.054;2023-10-09T05:59:15;5.13;;;4.63;;
8952;SDS011;4511;50.890;8.054;2023-10-09T06:01:59;5.97;;;4.50;;
8952;SDS011;4511;50.890;8.054;2023-10-09T06:04:58;7.47;;;4.53;;
8952;SDS011;4511;50.890;8.054;2023-10-09T06:07:31;5.60;;;4.57;;
8952;SDS011;4511;50.890;8.054;2023-10-09T06:10:26;5.13;;;4.60;;
8952;SDS011;4511;50.890;8.054;2023-10-09T06:13:04;4.70;;;4.30;;
8952;SDS011;4511;50.890;8.054;2023-10-09T06:15:35;5.37;;;4.30;;
8952;SDS011;4511;50.890;8.054;2023-10-09T06:18:34;4.30;;;3.80;;
8952;SDS011;4511;50.890;8.054;2023-10-09T06:21:06;7.10;;;4.20;;
8952;SDS011;4511;50.890;8.054;2023-10-09T06:23:36;6.10;;;4.40;;
8952;SDS011;4511;50.890;8.054;2023-10-09T06:26:20;5.43;;;4.60;;
8952;SDS011;4511;50.890;8.054;2023-10-09T06:28:50;5.50;;;4.70;;
8952;SDS011;4511;50.890;8.054;2023-10-09T06:31:39;5.40;;;4.33;;
8952;SDS011;4511;50.890;8.054;2023-10-09T06:34:23;5.17;;;4.57;;
8952;SDS011;4511;50.890;8.054;2023-10-09T06:36:57;14.23;;;4.63;;
8952;SDS011;4511;50.890;8.054;2023-10-09T06:39:31;6.53;;;4.60;;
8952;SDS011;4511;50.890;8.054;2023-10-09T06:42:32;5.87;;;4.50;;
8952;SDS011;4511;50.890;8.054;2023-10-09T06:45:09;5.23;;;4.73;;
8952;SDS011;4511;50.890;8.054;2023-10-09T06:47:40;5.93;;;4.63;;
8952;SDS011;4511;50.890;8.054;2023-10-09T06:50:07;5.53;;;4.50;;
8952;SDS011;4511;50.890;8.054;2023-10-09T06:52:49;6.17;;;4.53;;
8952;SDS011;4511;50.890;8.054;2023-10-09T06:55:37;4.87;;;4.27;;
8952;SDS011;4511;50.890;8.054;2023-10-09T06:58:13;9.00;;;5.00;;
8952;SDS011;4511;50.890;8.054;2023-10-09T07:00:41;4.73;;;4.30;;
8952;SDS011;4511;50.890;8.054;2023-10-09T07:03:25;5.20;;;4.70;;
8952;SDS011;4511;50.890;8.054;2023-10-09T07:06:04;4.40;;;4.00;;
8952;SDS011;4511;50.890;8.054;2023-10-09T07:08:34;7.33;;;4.60;;
8952;SDS011;4511;50.890;8.054;2023-10-09T07:11:04;7.50;;;4.70;;
8952;SDS011;4511;50.890;8.054;2023-10-09T07:14:03;6.80;;;5.73;;
8952;SDS011;4511;50.890;8.054;2023-10-09T07:16:31;5.53;;;4.60;;
8952;SDS011;4511;50.890;8.054;2023-10-09T07:19:03;5.43;;;4.40;;
8952;SDS011;4511;50.890;8.054;2023-10-09T07:21:50;4.50;;;4.10;;
8952;SDS011;4511;50.890;8.054;2023-10-09T07:24:19;6.73;;;4.67;;
8952;SDS011;4511;50.890;8.054;2023-10-09T07:27:04;4.93;;;4.43;;
8952;SDS011;4511;50.890;8.054;2023-10-09T07:29:37;9.17;;;5.17;;
8952;SDS011;4511;50.890;8.054;2023-10-09T07:32:12;8.30;;;5.00;;
8952;SDS011;4511;50.890;8.054;2023-10-09T07:34:45;9.23;;;4.70;;
8952;SDS011;4511;50.890;8.054;2023-10-09T07:37:25;7.67;;;5.40;;
8952;SDS011;4511;50.890;8.054;2023-10-09T07:39:55;8.73;;;6.03;;
8952;SDS011;4511;50.890;8.054;2023-10-09T07:42:24;6.50;;;5.80;;
8952;SDS011;4511;50.890;8.054;2023-10-09T07:45:09;6.70;;;5.50;;
8952;SDS011;4511;50.890;8.054;2023-10-09T07:47:58;10.40;;;6.00;;
8952;SDS011;4511;50.890;8.054;2023-10-09T07:50:34;7.77;;;6.00;;
8952;SDS011;4511;50.890;8.054;2023-10-09T07:53:06;7.43;;;5.60;;
8952;SDS011;4511;50.890;8.054;2023-10-09T07:55:43;10.23;;;5.90;;
8952;SDS011;4511;50.890;8.054;2023-10-09T07:58:20;8.87;;;6.33;;
8952;SDS011;4511;50.890;8.054;2023-10-09T08:00:50;7.77;;;6.47;;
8952;SDS011;4511;50.890;8.054;2023-10-09T08:03:40;11.80;;;6.20;;
8952;SDS011;4511;50.890;8.054;2023-10-09T08:06:10;11.20;;;5.87;;
8952;SDS011;4511;50.890;8.054;2023-10-09T08:08:51;9.47;;;6.43;;
8952;SDS011;4511;50.890;8.054;2023-10-09T08:11:32;13.57;;;6.47;;
8952;SDS011;4511;50.890;8.054;2023-10-09T08:14:26;9.00;;;6.90;;
8952;SDS011;4511;50.890;8.054;2023-10-09T08:17:08;10.07;;;6.60;;
8952;SDS011;4511;50.890;8.054;2023-10-09T08:19:39;12.63;;;6.80;;
8952;SDS011;4511;50.890;8.054;2023-10-09T08:22:20;9.40;;;6.43;;
8952;SDS011;4511;50.890;8.054;2023-10-09T08:25:05;11.30;;;6.70;;
8952;SDS011;4511;50.890;8.054;2023-10-09T08:27:33;12.10;;;6.70;;
8952;SDS011;4511;50.890;8.054;2023-10-09T08:30:21;10.93;;;5.73;;
8952;SDS011;4511;50.890;8.054;2023-10-09T08:32:54;8.47;;;6.00;;
8952;SDS011;4511;50.890;8.054;2023-10-09T08:35:26;10.73;;;6.43;;
8952;SDS011;4511;50.890;8.054;2023-10-09T08:37:55;7.67;;;5.83;;
8952;SDS011;4511;50.890;8.054;2023-10-09T08:40:27;11.97;;;6.30;;
8952;SDS011;4511;50.890;8.054;2023-10-09T08:42:58;7.13;;;5.87;;
8952;SDS011;4511;50.890;8.054;2023-10-09T08:45:35;9.33;;;6.53;;
8952;SDS011;4511;50.890;8.054;2023-10-09T08:48:04;10.80;;;5.50;;
8952;SDS011;4511;50.890;8.054;2023-10-09T08:50:31;11.07;;;6.90;;
8952;SDS011;4511;50.890;8.054;2023-10-09T08:52:59;9.83;;;7.10;;
8952;SDS011;4511;50.890;8.054;2023-10-09T08:55:28;12.53;;;8.63;;
8952;SDS011;4511;50.890;8.054;2023-10-09T08:57:54;12.17;;;7.83;;
8952;SDS011;4511;50.890;8.054;2023-10-09T09:00:24;11.67;;;7.40;;
8952;SDS011;4511;50.890;8.054;2023-10-09T09:02:52;10.07;;;7.07;;
8952;SDS011;4511;50.890;8.054;2023-10-09T09:05:19;11.23;;;7.40;;
8952;SDS011;4511;50.890;8.054;2023-10-09T09:07:46;12.70;;;7.53;;
8952;SDS011;4511;50.890;8.054;2023-10-09T09:10:14;10.97;;;7.40;;
8952;SDS011;4511;50.890;8.054;2023-10-09T09:12:46;12.50;;;8.23;;
8952;SDS011;4511;50.890;8.054;2023-10-09T09:15:18;13.77;;;8.47;;
8952;SDS011;4511;50.890;8.054;2023-10-09T09:17:47;11.47;;;7.73;;
8952;SDS011;4511;50.890;8.054;2023-10-09T09:20:23;13.33;;;8.80;;
8952;SDS011;4511;50.890;8.054;2023-10-09T09:22:55;10.40;;;7.70;;
8952;SDS011;4511;50.890;8.054;2023-10-09T09:25:22;11.40;;;8.37;;
8952;SDS011;4511;50.890;8.054;2023-10-09T09:27:50;13.23;;;8.00;;
8952;SDS011;4511;50.890;8.054;2023-10-09T09:30:22;12.93;;;7.90;;
8952;SDS011;4511;50.890;8.054;2023-10-09T09:32:50;11.17;;;8.07;;
8952;SDS011;4511;50.890;8.054;2023-10-09T09:35:40;12.57;;;8.07;;
8952;SDS011;4511;50.890;8.054;2023-10-09T09:38:22;11.50;;;8.10;;
8952;SDS011;4511;50.890;8.054;2023-10-09T09:40:50;12.30;;;7.37;;
8952;SDS011;4511;50.890;8.054;2023-10-09T09:43:19;12.20;;;7.53;;
8952;SDS011;4511;50.890;8.054;2023-10-09T09:45:48;17.07;;;7.40;;
8952;SDS011;4511;50.890;8.054;2023-10-09T09:48:16;13.30;;;8.10;;
8952;SDS011;4511;50.890;8.054;2023-10-09T09:50:45;12.63;;;8.43;;
8952;SDS011;4511;50.890;8.054;2023-10-09T09:53:13;14.53;;;7.90;;
8952;SDS011;4511;50.890;8.054;2023-10-09T09:55:43;9.17;;;6.93;;
8952;SDS011;4511;50.890;8.054;2023-10-09T09:58:17;12.73;;;7.53;;
8952;SDS011;4511;50.890;8.054;2023-10-09T10:00:45;13.70;;;7.30;;
8952;SDS011;4511;50.890;8.054;2023-10-09T10:03:19;9.93;;;7.63;;
8952;SDS011;4511;50.890;8.054;2023-10-09T10:05:51;10.30;;;7.67;;
8952;SDS011;4511;50.890;8.054;2023-10-09T10:08:21;12.07;;;7.10;;
8952;SDS011;4511;50.890;8.054;2023-10-09T10:10:56;9.83;;;7.40;;
8952;SDS011;4511;50.890;8.054;2023-10-09T10:16:24;12.10;;;8.07;;
8952;SDS011;4511;50.890;8.054;2023-10-09T10:18:59;10.90;;;8.00;;
8952;SDS011;4511;50.890;8.054;2023-10-09T10:21:47;10.20;;;7.27;;
8952;SDS011;4511;50.890;8.054;2023-10-09T10:27:27;11.73;;;7.00;;
8952;SDS011;4511;50.890;8.054;2023-10-09T10:32:55;11.30;;;7.40;;
8952;SDS011;4511;50.890;8.054;2023-10-09T10:35:23;9.43;;;6.80;;
8952;SDS011;4511;50.890;8.054;2023-10-09T10:41:16;12.43;;;6.57;;
8952;SDS011;4511;50.890;8.054;2023-10-09T10:43:44;9.00;;;6.63;;
8952;SDS011;4511;50.890;8.054;2023-10-09T10:46:19;10.27;;;6.40;;
8952;SDS011;4511;50.890;8.054;2023-10-09T10:48:55;11.93;;;6.80;;
8952;SDS011;4511;50.890;8.054;2023-10-09T10:51:25;10.17;;;6.73;;
8952;SDS011;4511;50.890;8.054;2023-10-09T10:54:01;7.83;;;6.00;;
8952;SDS011;4511;50.890;8.054;2023-10-09T10:56:42;13.57;;;6.50;;
8952;SDS011;4511;50.890;8.054;2023-10-09T10:59:10;9.00;;;6.80;;
8952;SDS011;4511;50.890;8.054;2023-10-09T11:01:47;10.47;;;6.70;;
8952;SDS011;4511;50.890;8.054;2023-10-09T11:04:18;9.07;;;6.17;;
8952;SDS011;4511;50.890;8.054;2023-10-09T11:07:04;12.10;;;6.20;;
8952;SDS011;4511;50.890;8.054;2023-10-09T11:09:46;8.20;;;5.80;;
8952;SDS011;4511;50.890;8.054;2023-10-09T11:12:43;9.23;;;6.47;;
8952;SDS011;4511;50.890;8.054;2023-10-09T11:15:31;11.37;;;6.33;;
8952;SDS011;4511;50.890;8.054;2023-10-09T11:18:09;9.33;;;6.20;;
8952;SDS011;4511;50.890;8.054;2023-10-09T11:20:45;8.67;;;5.63;;
8952;SDS011;4511;50.890;8.054;2023-10-09T11:23:22;10.37;;;5.77;;
8952;SDS011;4511;50.890;8.054;2023-10-09T11:25:56;11.47;;;6.20;;
8952;SDS011;4511;50.890;8.054;2023-10-09T11:28:42;8.30;;;6.50;;
8952;SDS011;4511;50.890;8.054;2023-10-09T11:31:14;9.70;;;6.23;;
8952;SDS011;4511;50.890;8.054;2023-10-09T11:33:44;7.67;;;5.87;;
8952;SDS011;4511;50.890;8.054;2023-10-09T11:36:11;8.57;;;6.00;;
8952;SDS011;4511;50.890;8.054;2023-10-09T11:38:37;11.47;;;6.53;;
8952;SDS011;4511;50.890;8.054;2023-10-09T11:41:14;9.10;;;6.33;;
8952;SDS011;4511;50.890;8.054;2023-10-09T11:43:45;10.67;;;6.70;;
8952;SDS011;4511;50.890;8.054;2023-10-09T11:46:17;13.20;;;6.73;;
8952;SDS011;4511;50.890;8.054;2023-10-09T11:49:04;10.00;;;6.67;;
8952;SDS011;4511;50.890;8.054;2023-10-09T11:51:51;10.27;;;6.77;;
8952;SDS011;4511;50.890;8.054;2023-10-09T11:54:55;10.40;;;6.60;;
8952;SDS011;4511;50.890;8.054;2023-10-09T11:57:26;8.77;;;6.27;;
8952;SDS011;4511;50.890;8.054;2023-10-09T11:59:57;8.67;;;5.90;;
8952;SDS011;4511;50.890;8.054;2023-10-09T12:02:24;12.90;;;6.07;;
8952;SDS011;4511;50.890;8.054;2023-10-09T12:04:51;8.83;;;6.17;;
8952;SDS011;4511;50.890;8.054;2023-10-09T12:07:21;10.57;;;6.33;;
8952;SDS011;4511;50.890;8.054;2023-10-09T12:09:48;10.87;;;5.70;;
8952;SDS011;4511;50.890;8.054;2023-10-09T12:12:16;7.93;;;5.90;;
8952;SDS011;4511;50.890;8.054;2023-10-09T12:14:48;6.93;;;5.53;;
8952;SDS011;4511;50.890;8.054;2023-10-09T12:17:18;12.10;;;6.20;;
8952;SDS011;4511;50.890;8.054;2023-10-09T12:19:49;10.30;;;6.50;;
8952;SDS011;4511;50.890;8.054;2023-10-09T12:22:16;8.60;;;5.60;;
8952;SDS011;4511;50.890;8.054;2023-10-09T12:24:45;11.07;;;5.97;;
8952;SDS011;4511;50.890;8.054;2023-10-09T12:27:12;9.87;;;6.03;;
8952;SDS011;4511;50.890;8.054;2023-10-09T12:29:38;9.17;;;5.63;;
8952;SDS011;4511;50.890;8.054;2023-10-09T12:32:10;11.63;;;6.00;;
8952;SDS011;4511;50.890;8.054;2023-10-09T12:34:37;8.43;;;5.73;;
8952;SDS011;4511;50.890;8.054;2023-10-09T12:37:04;9.23;;;5.83;;
8952;SDS011;4511;50.890;8.054;2023-10-09T12:39:31;7.73;;;5.47;;
8952;SDS011;4511;50.890;8.054;2023-10-09T12:41:59;8.77;;;5.83;;
8952;SDS011;4511;50.890;8.054;2023-10-09T12:44:31;9.67;;;5.70;;
8952;SDS011;4511;50.890;8.054;2023-10-09T12:46:59;8.70;;;5.07;;
8952;SDS011;4511;50.890;8.054;2023-10-09T12:49:31;10.10;;;5.57;;
8952;SDS011;4511;50.890;8.054;2023-10-09T12:51:57;7.33;;;5.47;;
8952;SDS011;4511;50.890;8.054;2023-10-09T12:54:24;9.27;;;5.70;;
8952;SDS011;4511;50.890;8.054;2023-10-09T12:56:53;8.43;;;5.33;;
8952;SDS011;4511;50.890;8.054;2023-10-09T12:59:20;8.97;;;5.77;;
8952;SDS011;4511;50.890;8.054;2023-10-09T13:01:48;12.57;;;5.50;;
8952;SDS011;4511;50.890;8.054;2023-10-09T13:04:18;8.83;;;5.70;;
8952;SDS011;4511;50.890;8.054;2023-10-09T13:06:48;7.47;;;5.30;;
8952;SDS011;4511;50.890;8.054;2023-10-09T13:09:19;9.73;;;5.93;;
8952;SDS011;4511;50.890;8.054;2023-10-09T13:11:58;8.13;;;5.63;;
8952;SDS011;4511;50.890;8.054;2023-10-09T13:14:25;9.37;;;5.87;;
8952;SDS011;4511;50.890;8.054;2023-10-09T13:16:52;6.30;;;5.03;;
8952;SDS011;4511;50.890;8.054;2023-10-09T13:19:19;8.40;;;5.87;;
8952;SDS011;4511;50.890;8.054;2023-10-09T13:21:50;6.93;;;5.37;;
8952;SDS011;4511;50.890;8.054;2023-10-09T13:24:17;8.70;;;6.00;;
8952;SDS011;4511;50.890;8.054;2023-10-09T13:26:49;8.53;;;5.83;;
8952;SDS011;4511;50.890;8.054;2023-10-09T13:29:18;12.47;;;5.80;;
8952;SDS011;4511;50.890;8.054;2023-10-09T13:31:47;11.77;;;5.67;;
8952;SDS011;4511;50.890;8.054;2023-10-09T13:34:16;10.47;;;5.87;;
8952;SDS011;4511;50.890;8.054;2023-10-09T13:36:43;7.77;;;6.00;;
8952;SDS011;4511;50.890;8.054;2023-10-09T13:39:16;8.10;;;5.83;;
8952;SDS011;4511;50.890;8.054;2023-10-09T13:41:48;8.40;;;5.37;;
8952;SDS011;4511;50.890;8.054;2023-10-09T13:44:22;7.63;;;5.50;;
8952;SDS011;4511;50.890;8.054;2023-10-09T13:46:51;10.33;;;6.03;;
8952;SDS011;4511;50.890;8.054;2023-10-09T13:49:18;10.23;;;5.40;;
8952;SDS011;4511;50.890;8.054;2023-10-09T13:51:47;7.10;;;5.53;;
8952;SDS011;4511;50.890;8.054;2023-10-09T13:54:16;9.57;;;5.40;;
8952;SDS011;4511;50.890;8.054;2023-10-09T13:56:53;9.73;;;5.07;;
8952;SDS011;4511;50.890;8.054;2023-10-09T13:59:20;9.47;;;5.43;;
8952;SDS011;4511;50.890;8.054;2023-10-09T14:01:48;8.30;;;5.70;;
8952;SDS011;4511;50.890;8.054;2023-10-09T14:04:15;9.97;;;6.00;;
8952;SDS011;4511;50.890;8.054;2023-10-09T14:06:43;7.73;;;4.90;;
8952;SDS011;4511;50.890;8.054;2023-10-09T14:09:11;8.27;;;5.53;;
8952;SDS011;4511;50.890;8.054;2023-10-09T14:11:54;7.83;;;5.27;;
8952;SDS011;4511;50.890;8.054;2023-10-09T14:14:31;10.03;;;5.67;;
8952;SDS011;4511;50.890;8.054;2023-10-09T14:16:59;6.67;;;4.93;;
8952;SDS011;4511;50.890;8.054;2023-10-09T14:19:26;8.07;;;5.10;;
8952;SDS011;4511;50.890;8.054;2023-10-09T14:21:58;9.97;;;4.70;;
8952;SDS011;4511;50.890;8.054;2023-10-09T14:24:24;11.37;;;5.30;;
8952;SDS011;4511;50.890;8.054;2023-10-09T14:26:59;8.70;;;5.23;;
8952;SDS011;4511;50.890;8.054;2023-10-09T14:29:28;8.60;;;5.37;;
8952;SDS011;4511;50.890;8.054;2023-10-09T14:31:55;8.50;;;5.00;;
8952;SDS011;4511;50.890;8.054;2023-10-09T14:34:26;8.20;;;5.60;;
8952;SDS011;4511;50.890;8.054;2023-10-09T14:36:57;11.40;;;5.60;;
8952;SDS011;4511;50.890;8.054;2023-10-09T14:39:25;9.87;;;5.20;;
8952;SDS011;4511;50.890;8.054;2023-10-09T14:41:52;7.40;;;4.80;;
8952;SDS011;4511;50.890;8.054;2023-10-09T14:44:21;7.50;;;5.30;;
8952;SDS011;4511;50.890;8.054;2023-10-09T14:46:48;7.97;;;5.43;;
8952;SDS011;4511;50.890;8.054;2023-10-09T14:49:15;8.37;;;5.43;;
8952;SDS011;4511;50.890;8.054;2023-10-09T14:51:46;9.30;;;5.07;;
8952;SDS011;4511;50.890;8.054;2023-10-09T14:54:13;6.80;;;5.47;;
8952;SDS011;4511;50.890;8.054;2023-10-09T14:56:43;8.70;;;5.67;;
8952;SDS011;4511;50.890;8.054;2023-10-09T14:59:12;8.27;;;5.10;;
8952;SDS011;4511;50.890;8.054;2023-10-09T15:01:40;8.30;;;5.20;;
8952;SDS011;4511;50.890;8.054;2023-10-09T15:04:07;9.07;;;5.50;;
8952;SDS011;4511;50.890;8.054;2023-10-09T15:06:39;8.70;;;5.03;;
8952;SDS011;4511;50.890;8.054;2023-10-09T15:09:06;8.30;;;5.37;;
8952;SDS011;4511;50.890;8.054;2023-10-09T15:11:46;11.73;;;5.80;;
8952;SDS011;4511;50.890;8.054;2023-10-09T15:14:14;9.27;;;5.20;;
8952;SDS011;4511;50.890;8.054;2023-10-09T15:16:42;11.27;;;5.73;;
8952;SDS011;4511;50.890;8.054;2023-10-09T15:19:09;7.93;;;5.83;;
8952;SDS011;4511;50.890;8.054;2023-10-09T15:21:36;8.20;;;5.77;;
8952;SDS011;4511;50.890;8.054;2023-10-09T15:24:09;7.93;;;6.20;;
8952;SDS011;4511;50.890;8.054;2023-10-09T15:26:37;9.43;;;6.20;;
8952;SDS011;4511;50.890;8.054;2023-10-09T15:29:05;9.00;;;5.77;;
8952;SDS011;4511;50.890;8.054;2023-10-09T15:31:34;8.73;;;5.83;;
8952;SDS011;4511;50.890;8.054;2023-10-09T15:34:02;9.37;;;6.80;;
8952;SDS011;4511;50.890;8.054;2023-10-09T15:36:33;11.87;;;6.37;;
8952;SDS011;4511;50.890;8.054;2023-10-09T15:39:01;7.50;;;6.13;;
8952;SDS011;4511;50.890;8.054;2023-10-09T15:41:28;7.57;;;5.70;;
8952;SDS011;4511;50.890;8.054;2023-10-09T15:43:56;12.53;;;5.93;;
8952;SDS011;4511;50.890;8.054;2023-10-09T15:46:23;8.90;;;6.97;;
8952;SDS011;4511;50.890;8.054;2023-10-09T15:48:50;11.80;;;6.80;;
8952;SDS011;4511;50.890;8.054;2023-10-09T15:51:19;10.07;;;6.50;;
8952;SDS011;4511;50.890;8.054;2023-10-09T15:53:47;8.77;;;6.47;;
8952;SDS011;4511;50.890;8.054;2023-10-09T15:56:15;10.47;;;6.30;;
8952;SDS011;4511;50.890;8.054;2023-10-09T15:58:42;11.80;;;6.67;;
8952;SDS011;4511;50.890;8.054;2023-10-09T16:01:11;14.23;;;6.63;;